createdAt,value
2023-05-03T00:02:21.632Z,2.37
2023-05-03T00:04:54.504Z,3.20
2023-05-03T00:07:23.124Z,2.30
2023-05-03T00:09:51.171Z,2.30
2023-05-03T00:12:19.191Z,1.93
2023-05-03T00:14:49.926Z,2.57
2023-05-03T00:17:19.274Z,1.90
2023-05-03T00:19:47.685Z,2.50
2023-05-03T00:22:15.591Z,2.93
2023-05-03T00:24:43.460Z,3.63
2023-05-03T00:27:14.393Z,4.30
2023-05-03T00:29:42.308Z,2.50
2023-05-03T00:32:11.182Z,2.70
2023-05-03T00:34:43.316Z,3.87
2023-05-03T00:37:11.257Z,3.07
2023-05-03T00:39:39.191Z,2.60
2023-05-03T00:42:10.303Z,2.43
2023-05-03T00:44:38.167Z,1.60
2023-05-03T00:50:38.065Z,3.50
2023-05-03T00:53:06.129Z,2.23
2023-05-03T00:55:34.550Z,2.17
2023-05-03T00:58:02.617Z,1.90
2023-05-03T01:00:30.667Z,1.70
2023-05-03T01:02:58.623Z,2.43
2023-05-03T01:05:26.800Z,2.47
2023-05-03T01:08:02.909Z,3.13
2023-05-03T01:10:34.882Z,3.00
2023-05-03T01:13:07.725Z,2.33
2023-05-03T01:15:45.653Z,2.60
2023-05-03T01:18:15.701Z,2.43
2023-05-03T01:20:45.070Z,2.83
2023-05-03T01:23:16.481Z,2.20
2023-05-03T01:25:45.792Z,2.97
2023-05-03T01:31:45.699Z,2.37
2023-05-03T01:34:19.650Z,5.73
2023-05-03T01:36:47.710Z,2.60
2023-05-03T01:39:17.754Z,2.50
2023-05-03T01:41:47.664Z,2.93
2023-05-03T01:44:16.508Z,2.87
2023-05-03T01:46:45.036Z,2.60
2023-05-03T01:49:13.257Z,2.37
2023-05-03T01:51:41.185Z,3.47
2023-05-03T01:54:09.159Z,2.93
2023-05-03T01:56:37.429Z,3.50
2023-05-03T01:59:06.848Z,3.17
2023-05-03T02:01:34.831Z,3.23
2023-05-03T02:04:02.858Z,4.03
2023-05-03T02:06:30.837Z,4.77
2023-05-03T02:08:58.800Z,3.63
2023-05-03T02:11:26.672Z,3.07
2023-05-03T02:13:54.598Z,3.40
2023-05-03T02:16:23.971Z,3.80
2023-05-03T02:18:52.072Z,4.47
2023-05-03T02:21:19.996Z,5.77
2023-05-03T02:23:47.992Z,4.70
2023-05-03T02:26:15.954Z,5.63
2023-05-03T02:28:43.828Z,4.60
2023-05-03T02:31:13.063Z,6.97
2023-05-03T02:33:42.393Z,5.60
2023-05-03T02:36:10.634Z,5.77
2023-05-03T02:38:38.686Z,4.50
2023-05-03T02:41:06.732Z,4.83
2023-05-03T02:43:34.679Z,4.20
2023-05-03T02:46:02.619Z,4.03
2023-05-03T02:48:30.575Z,4.70
2023-05-03T02:50:59.895Z,4.27
2023-05-03T02:53:27.776Z,6.00
2023-05-03T02:55:55.756Z,5.30
2023-05-03T02:58:23.624Z,4.93
2023-05-03T03:00:51.569Z,5.63
2023-05-03T03:03:19.549Z,5.53
2023-05-03T03:05:47.548Z,4.27
2023-05-03T03:08:16.870Z,4.10
2023-05-03T03:10:44.817Z,4.97
2023-05-03T03:13:12.721Z,5.30
2023-05-03T03:15:40.823Z,4.73
2023-05-03T03:18:08.804Z,5.57
2023-05-03T03:20:36.722Z,4.63
2023-05-03T03:23:18.348Z,4.00
2023-05-03T03:25:46.231Z,5.30
2023-05-03T03:28:14.145Z,4.10
2023-05-03T03:30:42.159Z,5.63
2023-05-03T03:33:10.153Z,5.10
2023-05-03T03:35:38.173Z,6.30
2023-05-03T03:38:06.136Z,5.37
2023-05-03T03:40:35.446Z,4.70
2023-05-03T03:43:03.604Z,6.93
2023-05-03T03:45:31.517Z,5.43
2023-05-03T03:47:59.522Z,6.47
2023-05-03T03:50:27.776Z,5.70
2023-05-03T03:52:55.728Z,5.03
2023-05-03T03:55:23.776Z,4.70
2023-05-03T03:57:53.103Z,8.23
2023-05-03T04:00:21.232Z,4.50
2023-05-03T04:02:49.398Z,6.57
2023-05-03T04:05:17.612Z,6.17
2023-05-03T04:07:45.580Z,6.57
2023-05-03T04:10:13.454Z,5.20
2023-05-03T04:12:41.393Z,6.47
2023-05-03T04:15:12.125Z,5.40
2023-05-03T04:17:40.055Z,6.97
2023-05-03T04:20:11.370Z,5.13
2023-05-03T04:22:40.180Z,6.47
2023-05-03T04:25:09.864Z,5.80
2023-05-03T04:27:38.435Z,6.10
2023-05-03T04:33:30.314Z,7.10
2023-05-03T04:35:58.239Z,5.70
2023-05-03T04:38:26.163Z,6.00
2023-05-03T04:40:54.586Z,6.17
2023-05-03T04:43:23.478Z,7.30
2023-05-03T04:45:53.175Z,5.10
2023-05-03T04:48:21.073Z,9.13
2023-05-03T04:50:50.388Z,6.63
2023-05-03T04:53:18.313Z,6.20
2023-05-03T04:55:47.692Z,6.43
2023-05-03T04:58:15.683Z,6.37
2023-05-03T05:00:43.903Z,6.97
2023-05-03T05:03:12.087Z,9.33
2023-05-03T05:05:40.070Z,6.77
2023-05-03T05:08:09.450Z,8.00
2023-05-03T05:10:38.950Z,6.40
2023-05-03T05:13:06.917Z,7.97
2023-05-03T05:15:34.835Z,6.20
2023-05-03T05:18:02.770Z,6.30
2023-05-03T05:24:00.740Z,11.17
2023-05-03T05:26:28.699Z,5.33
2023-05-03T05:31:55.979Z,7.57
2023-05-03T05:34:24.043Z,10.23
2023-05-03T05:36:52.440Z,6.00
2023-05-03T05:39:23.513Z,6.27
2023-05-03T05:41:51.744Z,6.23
2023-05-03T05:44:19.764Z,6.47
2023-05-03T05:46:47.861Z,6.60
2023-05-03T05:49:15.857Z,7.67
2023-05-03T05:51:45.239Z,5.90
2023-05-03T05:54:13.209Z,11.07
2023-05-03T05:56:42.533Z,6.70
2023-05-03T05:59:10.956Z,8.30
2023-05-03T06:01:41.878Z,7.53
2023-05-03T06:04:09.836Z,7.83
2023-05-03T06:06:37.834Z,11.30
2023-05-03T06:09:16.662Z,9.40
2023-05-03T06:11:52.633Z,8.90
2023-05-03T06:14:20.925Z,7.13
2023-05-03T06:16:48.983Z,7.83
2023-05-03T06:19:17.021Z,7.60
2023-05-03T06:21:44.924Z,6.40
2023-05-03T06:24:13.119Z,7.97
2023-05-03T06:26:41.048Z,5.97
2023-05-03T06:29:10.473Z,6.63
2023-05-03T06:31:38.599Z,5.50
2023-05-03T06:34:08.558Z,10.33
2023-05-03T06:36:38.018Z,7.73
2023-05-03T06:39:05.958Z,6.27
2023-05-03T06:41:34.155Z,8.20
2023-05-03T06:44:02.038Z,9.57
2023-05-03T06:46:31.592Z,6.60
2023-05-03T06:48:59.608Z,6.20
2023-05-03T06:51:29.822Z,7.37
2023-05-03T06:53:58.048Z,7.93
2023-05-03T06:56:26.076Z,8.13
2023-05-03T06:58:54.347Z,8.10
2023-05-03T07:01:23.455Z,8.70
2023-05-03T07:03:52.905Z,9.70
2023-05-03T07:06:23.270Z,8.33
2023-05-03T07:08:51.730Z,8.87
2023-05-03T07:11:19.930Z,6.20
2023-05-03T07:13:47.867Z,7.90
2023-05-03T07:16:15.789Z,7.70
2023-05-03T07:18:43.748Z,8.77
2023-05-03T07:21:13.393Z,7.03
2023-05-03T07:23:41.578Z,7.93
2023-05-03T07:26:10.072Z,8.83
2023-05-03T07:28:37.969Z,8.90
2023-05-03T07:31:06.028Z,7.43
2023-05-03T07:33:35.574Z,7.67
2023-05-03T07:36:03.570Z,6.40
2023-05-03T07:38:34.162Z,7.50
2023-05-03T07:41:02.105Z,9.13
2023-05-03T07:43:30.099Z,7.67
2023-05-03T07:45:58.066Z,6.87
2023-05-03T07:48:26.907Z,6.40
2023-05-03T07:50:54.790Z,5.63
2023-05-03T07:53:22.718Z,7.47
2023-05-03T07:55:54.570Z,7.57
2023-05-03T07:58:31.302Z,8.13
2023-05-03T08:01:07.268Z,7.03
2023-05-03T08:03:35.513Z,6.57
2023-05-03T08:06:03.625Z,9.20
2023-05-03T08:08:32.382Z,6.23
2023-05-03T08:11:17.157Z,7.77
2023-05-03T08:13:45.227Z,5.97
2023-05-03T08:16:14.535Z,6.33
2023-05-03T08:18:42.529Z,6.30
2023-05-03T08:21:13.593Z,9.23
2023-05-03T08:23:41.741Z,7.20
2023-05-03T08:26:10.241Z,6.73
2023-05-03T08:28:39.646Z,6.43
2023-05-03T08:31:07.981Z,8.23
2023-05-03T08:33:35.999Z,10.70
2023-05-03T08:36:03.939Z,6.87
2023-05-03T08:38:32.820Z,6.97
2023-05-03T08:41:05.175Z,5.90
2023-05-03T08:43:35.316Z,6.43
2023-05-03T08:46:04.768Z,9.47
2023-05-03T08:48:32.837Z,7.17
2023-05-03T08:51:01.492Z,5.27
2023-05-03T08:53:29.393Z,9.10
2023-05-03T08:55:57.308Z,6.87
2023-05-03T08:58:25.360Z,8.73
2023-05-03T09:00:53.250Z,5.13
2023-05-03T09:03:25.483Z,9.73
2023-05-03T09:05:53.538Z,5.23
2023-05-03T09:08:22.871Z,4.77
2023-05-03T09:10:51.084Z,6.57
2023-05-03T09:13:19.209Z,5.60
2023-05-03T09:15:54.432Z,6.20
2023-05-03T09:18:24.211Z,5.27
2023-05-03T09:20:53.181Z,6.37
2023-05-03T09:23:29.871Z,5.40
2023-05-03T09:25:58.299Z,5.07
2023-05-03T09:28:26.731Z,4.90
2023-05-03T09:31:05.358Z,5.47
2023-05-03T09:33:35.149Z,5.77
2023-05-03T09:36:03.850Z,5.33
2023-05-03T09:38:33.819Z,6.10
2023-05-03T09:41:02.219Z,4.97
2023-05-03T09:43:30.283Z,5.00
2023-05-03T09:46:09.699Z,5.73
2023-05-03T09:48:39.601Z,5.17
2023-05-03T09:51:07.758Z,3.63
2023-05-03T09:53:36.249Z,5.73
2023-05-03T09:56:05.184Z,4.13
2023-05-03T09:58:37.689Z,3.93
2023-05-03T10:01:05.929Z,9.03
2023-05-03T10:03:36.028Z,6.00
2023-05-03T10:06:07.867Z,4.77
2023-05-03T10:08:36.361Z,4.23
2023-05-03T10:11:05.281Z,7.93
2023-05-03T10:13:33.294Z,6.60
2023-05-03T10:16:03.999Z,4.03
2023-05-03T10:18:33.437Z,4.70
2023-05-03T10:21:03.638Z,4.50
2023-05-03T10:23:32.934Z,5.23
2023-05-03T10:26:16.958Z,5.73
2023-05-03T10:28:46.815Z,4.27
2023-05-03T10:31:33.406Z,5.20
2023-05-03T10:34:01.461Z,5.73
2023-05-03T10:36:38.288Z,8.00
2023-05-03T10:39:16.841Z,8.13
2023-05-03T10:41:44.845Z,5.63
2023-05-03T10:44:27.125Z,5.23
2023-05-03T10:46:55.307Z,4.00
2023-05-03T10:49:23.976Z,7.17
2023-05-03T10:51:52.002Z,4.60
2023-05-03T10:54:21.361Z,3.87
2023-05-03T10:56:56.682Z,3.30
2023-05-03T10:59:24.926Z,3.10
2023-05-03T11:01:53.744Z,3.20
2023-05-03T11:04:31.052Z,4.27
2023-05-03T11:07:00.556Z,3.57
2023-05-03T11:09:36.095Z,2.87
2023-05-03T11:12:07.546Z,3.10
2023-05-03T11:14:35.472Z,13.77
2023-05-03T11:17:03.688Z,2.67
2023-05-03T11:19:31.926Z,3.13
2023-05-03T11:21:59.885Z,4.17
2023-05-03T11:24:28.609Z,7.87
2023-05-03T11:26:58.468Z,3.40
2023-05-03T11:29:26.476Z,4.57
2023-05-03T11:31:54.667Z,4.00
2023-05-03T11:34:22.643Z,4.20
2023-05-03T11:36:51.382Z,4.50
2023-05-03T11:39:21.010Z,4.00
2023-05-03T11:42:04.784Z,3.33
2023-05-03T11:44:32.838Z,3.70
2023-05-03T11:47:01.810Z,5.33
2023-05-03T11:49:30.075Z,4.50
2023-05-03T11:51:58.052Z,2.60
2023-05-03T11:54:27.993Z,6.53
2023-05-03T11:56:59.973Z,3.00
2023-05-03T11:59:39.688Z,3.13
2023-05-03T12:02:09.525Z,3.43
2023-05-03T12:04:41.559Z,4.60
2023-05-03T12:07:11.013Z,3.27
2023-05-03T12:09:40.066Z,3.63
2023-05-03T12:12:10.692Z,4.07
2023-05-03T12:15:00.295Z,3.10
2023-05-03T12:17:39.265Z,2.73
2023-05-03T12:22:52.548Z,6.10
2023-05-03T12:25:26.020Z,4.13
2023-05-03T12:28:15.864Z,3.00
2023-05-03T12:30:46.478Z,6.43
2023-05-03T12:33:16.341Z,4.47
2023-05-03T12:35:47.320Z,3.60
2023-05-03T12:38:17.358Z,3.00
2023-05-03T12:40:47.494Z,3.17
2023-05-03T12:43:16.262Z,3.80
2023-05-03T12:45:50.071Z,2.23
2023-05-03T12:48:25.132Z,2.77
2023-05-03T12:51:05.187Z,2.80
2023-05-03T12:53:46.876Z,2.63
2023-05-03T12:56:15.805Z,2.33
2023-05-03T12:59:07.358Z,2.13
2023-05-03T13:04:31.152Z,2.43
2023-05-03T13:06:58.944Z,3.90
2023-05-03T13:09:37.951Z,3.60
2023-05-03T13:12:18.222Z,5.93
2023-05-03T13:14:46.183Z,2.80
2023-05-03T13:17:15.887Z,4.40
2023-05-03T13:19:44.216Z,2.60
2023-05-03T13:22:12.563Z,2.90
2023-05-03T13:24:40.681Z,4.40
2023-05-03T13:27:08.708Z,2.53
2023-05-03T13:29:36.590Z,2.33
2023-05-03T13:32:04.731Z,3.13
2023-05-03T13:34:34.259Z,2.03
2023-05-03T13:37:02.725Z,3.30
2023-05-03T13:39:30.621Z,2.23
2023-05-03T13:41:58.513Z,1.97
2023-05-03T13:44:26.564Z,2.60
2023-05-03T13:46:54.472Z,3.37
2023-05-03T13:49:22.556Z,2.00
2023-05-03T13:51:51.831Z,2.30
2023-05-03T13:54:19.736Z,2.20
2023-05-03T13:56:47.869Z,1.90
2023-05-03T13:59:15.739Z,2.33
2023-05-03T14:01:44.336Z,1.80
2023-05-03T14:04:12.371Z,2.13
2023-05-03T14:06:41.617Z,5.13
2023-05-03T14:09:11.952Z,2.20
2023-05-03T14:15:03.673Z,2.17
2023-05-03T14:17:34.988Z,2.37
2023-05-03T14:20:06.966Z,2.40
2023-05-03T14:22:35.245Z,3.07
2023-05-03T14:25:04.848Z,4.43
2023-05-03T14:27:35.713Z,2.00
2023-05-03T14:30:07.592Z,3.00
2023-05-03T14:32:35.682Z,2.97
2023-05-03T14:35:04.529Z,2.43
2023-05-03T14:37:33.554Z,3.03
2023-05-03T14:40:07.139Z,2.20
2023-05-03T14:42:35.350Z,1.90
2023-05-03T14:45:04.289Z,2.17
2023-05-03T14:47:32.480Z,1.90
2023-05-03T14:50:00.466Z,5.93
2023-05-03T14:52:28.460Z,5.03
2023-05-03T14:54:56.628Z,3.07
2023-05-03T14:57:26.071Z,1.87
2023-05-03T14:59:53.983Z,2.23
2023-05-03T15:02:22.898Z,2.87
2023-05-03T15:04:50.952Z,3.33
2023-05-03T15:07:18.944Z,2.70
2023-05-03T15:09:47.693Z,2.27
2023-05-03T15:12:16.214Z,2.30
2023-05-03T15:14:45.872Z,2.27
2023-05-03T15:17:14.036Z,5.57
2023-05-03T15:20:10.843Z,3.07
2023-05-03T15:22:38.789Z,2.43
2023-05-03T15:25:07.530Z,2.70
2023-05-03T15:27:35.487Z,4.27
2023-05-03T15:30:12.334Z,3.47
2023-05-03T15:32:40.418Z,3.80
2023-05-03T15:35:08.650Z,2.83
2023-05-03T15:37:37.691Z,3.00
2023-05-03T15:40:06.699Z,2.70
2023-05-03T15:42:34.951Z,2.77
2023-05-03T15:45:06.117Z,2.70
2023-05-03T15:47:34.624Z,2.67
2023-05-03T15:50:03.649Z,4.90
2023-05-03T15:52:32.189Z,2.80
2023-05-03T15:55:00.158Z,2.80
2023-05-03T15:57:29.657Z,2.70
2023-05-03T15:59:58.164Z,4.30
2023-05-03T16:02:27.531Z,5.10
2023-05-03T16:04:55.474Z,3.40
2023-05-03T16:07:23.366Z,4.37
2023-05-03T16:09:51.236Z,3.13
2023-05-03T16:12:19.166Z,3.93
2023-05-03T16:14:47.255Z,3.20
2023-05-03T16:17:15.165Z,3.00
2023-05-03T16:19:44.489Z,3.83
2023-05-03T16:22:12.398Z,3.27
2023-05-03T16:24:40.259Z,2.83
2023-05-03T16:27:08.195Z,3.67
2023-05-03T16:29:37.180Z,2.87
2023-05-03T16:32:06.440Z,3.70
2023-05-03T16:34:34.444Z,3.97
2023-05-03T16:37:07.030Z,2.73
2023-05-03T16:39:34.911Z,3.23
2023-05-03T16:42:02.933Z,3.23
2023-05-03T16:44:31.279Z,3.20
2023-05-03T16:46:59.192Z,3.53
2023-05-03T16:49:27.143Z,3.20
2023-05-03T16:51:55.010Z,3.60
2023-05-03T16:54:24.331Z,2.70
2023-05-03T16:56:52.941Z,2.47
2023-05-03T16:59:22.763Z,2.60
2023-05-03T17:01:52.851Z,4.07
2023-05-03T17:04:22.775Z,3.70
2023-05-03T17:06:53.127Z,3.10
2023-05-03T17:09:22.295Z,3.00
2023-05-03T17:11:51.577Z,3.83
2023-05-03T17:14:19.597Z,2.63
2023-05-03T17:16:49.153Z,3.27
2023-05-03T17:19:18.282Z,3.17
2023-05-03T17:21:46.203Z,4.70
2023-05-03T17:24:14.080Z,4.37
2023-05-03T17:26:41.987Z,3.43
2023-05-03T17:29:11.327Z,2.47
2023-05-03T17:32:16.367Z,2.80
2023-05-03T17:34:44.041Z,4.67
2023-05-03T17:37:19.118Z,3.30
2023-05-03T17:39:46.775Z,3.00
2023-05-03T17:42:14.456Z,2.80
2023-05-03T17:44:51.884Z,8.67
2023-05-03T17:47:20.991Z,3.30
2023-05-03T17:49:48.695Z,3.37
2023-05-03T17:52:16.753Z,2.60
2023-05-03T17:54:44.487Z,3.23
2023-05-03T17:57:12.396Z,3.00
2023-05-03T18:03:03.843Z,2.70
2023-05-03T18:05:36.920Z,3.70
2023-05-03T18:08:04.977Z,2.77
2023-05-03T18:10:32.968Z,4.13
2023-05-03T18:13:00.944Z,4.30
2023-05-03T18:15:29.046Z,3.40
2023-05-03T18:17:57.558Z,3.30
2023-05-03T18:20:27.006Z,2.70
2023-05-03T18:22:55.177Z,3.33
2023-05-03T18:25:23.116Z,2.90
2023-05-03T18:27:51.045Z,2.83
2023-05-03T18:30:19.040Z,3.73
2023-05-03T18:32:47.441Z,3.10
2023-05-03T18:35:15.629Z,3.00
2023-05-03T18:37:45.153Z,2.83
2023-05-03T18:40:13.469Z,5.07
2023-05-03T18:42:41.446Z,4.70
2023-05-03T18:45:09.782Z,2.97
2023-05-03T18:47:37.753Z,3.73
2023-05-03T18:50:06.266Z,4.03
2023-05-03T18:52:34.481Z,4.80
2023-05-03T18:55:03.930Z,3.40
2023-05-03T18:57:31.964Z,3.50
2023-05-03T19:00:07.995Z,3.37
2023-05-03T19:02:36.218Z,5.17
2023-05-03T19:05:04.297Z,3.60
2023-05-03T19:07:32.274Z,3.33
2023-05-03T19:10:01.389Z,3.53
2023-05-03T19:12:30.873Z,4.10
2023-05-03T19:14:58.889Z,5.03
2023-05-03T19:17:26.889Z,3.97
2023-05-03T19:19:54.884Z,4.20
2023-05-03T19:22:22.979Z,3.97
2023-05-03T19:24:50.965Z,4.80
2023-05-03T19:27:18.897Z,4.63
2023-05-03T19:29:48.505Z,3.50
2023-05-03T19:32:16.749Z,5.17
2023-05-03T19:34:44.693Z,5.73
2023-05-03T19:37:12.597Z,5.07
2023-05-03T19:39:40.576Z,3.63
2023-05-03T19:42:09.138Z,5.03
2023-05-03T19:44:37.053Z,4.43
2023-05-03T19:47:06.507Z,5.43
2023-05-03T19:49:34.419Z,5.30
2023-05-03T19:52:04.610Z,5.03
2023-05-03T19:54:33.094Z,4.03
2023-05-03T19:57:04.855Z,5.27
2023-05-03T19:59:32.991Z,6.60
2023-05-03T20:02:01.034Z,7.23
2023-05-03T20:04:30.570Z,9.83
2023-05-03T20:06:58.653Z,10.73
2023-05-03T20:09:26.618Z,10.33
2023-05-03T20:11:58.908Z,9.63
2023-05-03T20:14:28.026Z,10.10
2023-05-03T20:16:57.112Z,11.57
2023-05-03T20:19:25.542Z,16.73
2023-05-03T20:21:54.872Z,11.73
2023-05-03T20:24:22.852Z,10.90
2023-05-03T20:26:50.797Z,11.40
2023-05-03T20:29:18.892Z,8.80
2023-05-03T20:31:48.387Z,10.93
2023-05-03T20:34:16.816Z,12.20
2023-05-03T20:36:44.716Z,8.00
2023-05-03T20:39:14.086Z,9.03
2023-05-03T20:41:42.027Z,10.43
2023-05-03T20:44:09.985Z,14.17
2023-05-03T20:46:38.638Z,8.23
2023-05-03T20:49:08.312Z,11.30
2023-05-03T20:51:37.781Z,7.47
2023-05-03T20:54:05.694Z,11.27
2023-05-03T20:56:35.091Z,17.47
2023-05-03T20:59:03.584Z,19.97
2023-05-03T21:01:31.599Z,19.70
2023-05-03T21:03:59.827Z,20.17
2023-05-03T21:06:27.811Z,15.97
2023-05-03T21:08:55.709Z,17.37
2023-05-03T21:11:23.619Z,17.10
2023-05-03T21:13:52.900Z,17.87
2023-05-03T21:16:20.924Z,14.57
2023-05-03T21:18:49.095Z,10.27
2023-05-03T21:21:16.984Z,8.60
2023-05-03T21:23:45.221Z,10.77
2023-05-03T21:26:16.246Z,8.70
2023-05-03T21:28:47.256Z,10.13
2023-05-03T21:31:16.726Z,9.77
2023-05-03T21:33:44.678Z,7.67
2023-05-03T21:36:16.594Z,9.10
2023-05-03T21:38:44.488Z,7.87
2023-05-03T21:41:15.585Z,8.17
2023-05-03T21:43:43.696Z,10.37
2023-05-03T21:46:11.670Z,8.93
2023-05-03T21:48:41.538Z,9.10
2023-05-03T21:51:10.100Z,10.80
2023-05-03T21:53:38.319Z,9.00
2023-05-03T21:56:06.562Z,9.83
2023-05-03T21:58:37.394Z,12.50
2023-05-03T22:01:05.288Z,9.30
2023-05-03T22:03:33.283Z,10.30
2023-05-03T22:06:02.679Z,7.03
2023-05-03T22:08:30.657Z,5.67
2023-05-03T22:10:58.553Z,5.40
2023-05-03T22:13:29.587Z,4.97
2023-05-03T22:15:57.560Z,7.07
2023-05-03T22:18:28.219Z,7.17
2023-05-03T22:20:56.152Z,7.60
2023-05-03T22:23:25.460Z,4.43
2023-05-03T22:25:53.348Z,6.23
2023-05-03T22:28:21.277Z,5.03
2023-05-03T22:30:49.207Z,5.57
2023-05-03T22:33:17.134Z,4.40
2023-05-03T22:35:47.757Z,5.73
2023-05-03T22:38:15.697Z,5.07
2023-05-03T22:40:48.470Z,4.87
2023-05-03T22:43:16.416Z,5.93
2023-05-03T22:45:44.528Z,5.57
2023-05-03T22:48:12.548Z,7.87
2023-05-03T22:50:40.539Z,6.77
2023-05-03T22:53:16.299Z,7.30
2023-05-03T22:55:44.234Z,7.87
2023-05-03T22:58:13.568Z,9.50
2023-05-03T23:00:41.539Z,8.47
2023-05-03T23:03:09.561Z,5.80
2023-05-03T23:05:37.529Z,5.83
2023-05-03T23:08:05.889Z,8.23
2023-05-03T23:10:36.875Z,5.53
2023-05-03T23:13:04.812Z,5.77
2023-05-03T23:15:34.536Z,7.90
2023-05-03T23:18:02.540Z,5.33
2023-05-03T23:20:30.506Z,4.27
2023-05-03T23:22:58.416Z,3.93
2023-05-03T23:25:26.299Z,8.67
2023-05-03T23:27:54.231Z,8.77
2023-05-03T23:30:23.070Z,3.40
2023-05-03T23:32:52.933Z,3.20
2023-05-03T23:35:22.114Z,6.33
2023-05-03T23:37:50.033Z,2.90
2023-05-03T23:40:17.971Z,5.23
2023-05-03T23:42:46.882Z,5.23
2023-05-03T23:45:14.807Z,3.30
2023-05-03T23:47:42.699Z,3.70
2023-05-03T23:50:12.571Z,5.63
2023-05-03T23:52:40.508Z,3.40
2023-05-03T23:55:09.064Z,6.70
2023-05-03T23:57:37.177Z,4.90
